sensor_id;sensor_type;location;lat;lon;timestamp;temperature;humidity
18047;DHT22;9148;51.454;13.862;2022-11-20T00:01:10;-4.00;99.90
18047;DHT22;9148;51.454;13.862;2022-11-20T00:03:44;-4.10;99.90
18047;DHT22;9148;51.454;13.862;2022-11-20T00:06:12;-4.10;99.90
18047;DHT22;9148;51.454;13.862;2022-11-20T00:08:40;-4.00;99.90
18047;DHT22;9148;51.454;13.862;2022-11-20T00:11:08;-3.80;99.90
18047;DHT22;9148;51.454;13.862;2022-11-20T00:13:48;-4.00;99.90
18047;DHT22;9148;51.454;13.862;2022-11-20T00:16:19;-4.10;99.90
18047;DHT22;9148;51.454;13.862;2022-11-20T00:18:46;-4.10;99.90
18047;DHT22;9148;51.454;13.862;2022-11-20T00:21:18;-4.10;99.90
18047;DHT22;9148;51.454;13.862;2022-11-20T00:23:45;-4.30;99.90
18047;DHT22;9148;51.454;13.862;2022-11-20T00:26:15;-4.30;99.90
18047;DHT22;9148;51.454;13.862;2022-11-20T00:28:43;-4.20;99.90
18047;DHT22;9148;51.454;13.862;2022-11-20T00:31:14;-4.30;99.90
18047;DHT22;9148;51.454;13.862;2022-11-20T00:33:41;-3.80;99.90
18047;DHT22;9148;51.454;13.862;2022-11-20T00:36:31;-4.40;99.90
18047;DHT22;9148;51.454;13.862;2022-11-20T00:38:57;-4.40;99.90
18047;DHT22;9148;51.454;13.862;2022-11-20T00:41:24;-4.40;99.90
18047;DHT22;9148;51.454;13.862;2022-11-20T00:43:52;-4.50;99.90
18047;DHT22;9148;51.454;13.862;2022-11-20T00:46:23;-4.30;99.90
18047;DHT22;9148;51.454;13.862;2022-11-20T00:48:50;-4.50;99.90
18047;DHT22;9148;51.454;13.862;2022-11-20T00:51:19;-4.50;99.90
18047;DHT22;9148;51.454;13.862;2022-11-20T00:53:46;-4.50;99.90
18047;DHT22;9148;51.454;13.862;2022-11-20T00:56:15;-4.60;99.90
18047;DHT22;9148;51.454;13.862;2022-11-20T00:58:45;-4.60;99.90
18047;DHT22;9148;51.454;13.862;2022-11-20T01:01:29;-4.80;99.90
18047;DHT22;9148;51.454;13.862;2022-11-20T01:03:57;-4.60;99.90
18047;DHT22;9148;51.454;13.862;2022-11-20T01:06:27;-4.70;99.90
18047;DHT22;9148;51.454;13.862;2022-11-20T01:08:57;-4.70;99.90
18047;DHT22;9148;51.454;13.862;2022-11-20T01:11:29;-4.40;99.90
18047;DHT22;9148;51.454;13.862;2022-11-20T01:13:58;-4.80;99.90
18047;DHT22;9148;51.454;13.862;2022-11-20T01:16:29;-4.90;99.90
18047;DHT22;9148;51.454;13.862;2022-11-20T01:19:02;-4.80;99.90
18047;DHT22;9148;51.454;13.862;2022-11-20T01:21:32;-4.80;99.90
18047;DHT22;9148;51.454;13.862;2022-11-20T01:24:03;-4.80;99.90
18047;DHT22;9148;51.454;13.862;2022-11-20T01:26:32;-4.90;99.90
18047;DHT22;9148;51.454;13.862;2022-11-20T01:28:59;-5.00;99.90
18047;DHT22;9148;51.454;13.862;2022-11-20T01:33:57;-5.10;99.90
18047;DHT22;9148;51.454;13.862;2022-11-20T01:36:26;-5.10;99.90
18047;DHT22;9148;51.454;13.862;2022-11-20T01:38:55;-5.10;99.90
18047;DHT22;9148;51.454;13.862;2022-11-20T01:41:23;-5.10;99.90
18047;DHT22;9148;51.454;13.862;2022-11-20T01:44:10;-5.20;99.90
18047;DHT22;9148;51.454;13.862;2022-11-20T01:46:42;-4.30;99.90
18047;DHT22;9148;51.454;13.862;2022-11-20T01:49:20;-5.20;99.90
18047;DHT22;9148;51.454;13.862;2022-11-20T01:52:05;-5.30;99.90
18047;DHT22;9148;51.454;13.862;2022-11-20T01:54:38;-5.40;99.90
18047;DHT22;9148;51.454;13.862;2022-11-20T01:57:12;-5.40;99.90
18047;DHT22;9148;51.454;13.862;2022-11-20T01:59:41;-5.30;99.90
18047;DHT22;9148;51.454;13.862;2022-11-20T02:02:10;-5.40;99.90
18047;DHT22;9148;51.454;13.862;2022-11-20T02:04:36;-5.60;99.90
18047;DHT22;9148;51.454;13.862;2022-11-20T02:07:04;-5.50;99.90
18047;DHT22;9148;51.454;13.862;2022-11-20T02:09:30;-5.50;99.90
18047;DHT22;9148;51.454;13.862;2022-11-20T02:11:57;-5.50;99.90
18047;DHT22;9148;51.454;13.862;2022-11-20T02:14:24;-5.50;99.90
18047;DHT22;9148;51.454;13.862;2022-11-20T02:16:50;-5.50;99.90
18047;DHT22;9148;51.454;13.862;2022-11-20T02:19:30;-5.60;99.90
18047;DHT22;9148;51.454;13.862;2022-11-20T02:22:02;-5.60;99.90
18047;DHT22;9148;51.454;13.862;2022-11-20T02:24:30;-5.60;99.90
18047;DHT22;9148;51.454;13.862;2022-11-20T02:27:07;-5.70;99.90
18047;DHT22;9148;51.454;13.862;2022-11-20T02:29:52;-5.70;99.90
18047;DHT22;9148;51.454;13.862;2022-11-20T02:32:25;-5.70;99.90
18047;DHT22;9148;51.454;13.862;2022-11-20T02:34:53;-5.70;99.90
18047;DHT22;9148;51.454;13.862;2022-11-20T02:37:19;-5.70;99.90
18047;DHT22;9148;51.454;13.862;2022-11-20T02:39:50;-5.70;99.90
18047;DHT22;9148;51.454;13.862;2022-11-20T02:42:16;-5.70;99.90
18047;DHT22;9148;51.454;13.862;2022-11-20T02:44:42;-5.70;99.90
18047;DHT22;9148;51.454;13.862;2022-11-20T02:47:09;-5.80;99.90
18047;DHT22;9148;51.454;13.862;2022-11-20T02:49:34;-5.90;99.90
18047;DHT22;9148;51.454;13.862;2022-11-20T02:52:00;-5.90;99.90
18047;DHT22;9148;51.454;13.862;2022-11-20T02:54:26;-5.90;99.90
18047;DHT22;9148;51.454;13.862;2022-11-20T02:56:52;-5.90;99.90
18047;DHT22;9148;51.454;13.862;2022-11-20T02:59:18;-5.90;99.90
18047;DHT22;9148;51.454;13.862;2022-11-20T03:01:43;-5.60;99.90
18047;DHT22;9148;51.454;13.862;2022-11-20T03:04:09;-5.80;99.90
18047;DHT22;9148;51.454;13.862;2022-11-20T03:06:35;-5.90;99.90
18047;DHT22;9148;51.454;13.862;2022-11-20T03:09:00;-6.00;99.90
18047;DHT22;9148;51.454;13.862;2022-11-20T03:11:26;-6.00;99.90
18047;DHT22;9148;51.454;13.862;2022-11-20T03:13:52;-6.00;99.90
18047;DHT22;9148;51.454;13.862;2022-11-20T03:16:20;-5.30;99.90
18047;DHT22;9148;51.454;13.862;2022-11-20T03:18:48;-6.10;99.90
18047;DHT22;9148;51.454;13.862;2022-11-20T03:21:14;-6.00;99.90
18047;DHT22;9148;51.454;13.862;2022-11-20T03:23:41;-6.00;99.90
18047;DHT22;9148;51.454;13.862;2022-11-20T03:26:15;-6.10;99.90
18047;DHT22;9148;51.454;13.862;2022-11-20T03:28:50;-6.00;99.90
18047;DHT22;9148;51.454;13.862;2022-11-20T03:31:20;-6.00;99.90
18047;DHT22;9148;51.454;13.862;2022-11-20T03:33:47;-6.10;99.90
18047;DHT22;9148;51.454;13.862;2022-11-20T03:36:14;-6.10;99.90
18047;DHT22;9148;51.454;13.862;2022-11-20T03:38:42;-6.00;99.90
18047;DHT22;9148;51.454;13.862;2022-11-20T03:41:12;-6.00;99.90
18047;DHT22;9148;51.454;13.862;2022-11-20T03:43:40;-5.10;99.90
18047;DHT22;9148;51.454;13.862;2022-11-20T03:46:07;-6.00;99.90
18047;DHT22;9148;51.454;13.862;2022-11-20T03:48:33;-5.50;99.90
18047;DHT22;9148;51.454;13.862;2022-11-20T03:51:14;-6.00;99.90
18047;DHT22;9148;51.454;13.862;2022-11-20T03:53:41;-6.00;99.90
18047;DHT22;9148;51.454;13.862;2022-11-20T03:56:09;-6.10;99.90
18047;DHT22;9148;51.454;13.862;2022-11-20T03:58:37;-6.00;99.90
18047;DHT22;9148;51.454;13.862;2022-11-20T04:01:11;-6.40;99.90
18047;DHT22;9148;51.454;13.862;2022-11-20T04:03:40;-6.10;99.90
18047;DHT22;9148;51.454;13.862;2022-11-20T04:06:09;-6.00;99.90
18047;DHT22;9148;51.454;13.862;2022-11-20T04:08:34;-5.90;99.90
18047;DHT22;9148;51.454;13.862;2022-11-20T04:11:19;-5.90;99.90
18047;DHT22;9148;51.454;13.862;2022-11-20T04:14:00;-5.90;99.90
18047;DHT22;9148;51.454;13.862;2022-11-20T04:16:29;-5.90;99.90
18047;DHT22;9148;51.454;13.862;2022-11-20T04:18:58;-5.90;99.90
18047;DHT22;9148;51.454;13.862;2022-11-20T04:21:26;-5.80;99.90
18047;DHT22;9148;51.454;13.862;2022-11-20T04:23:53;-5.70;99.90
18047;DHT22;9148;51.454;13.862;2022-11-20T04:26:20;-5.70;99.90
18047;DHT22;9148;51.454;13.862;2022-11-20T04:28:46;-5.80;99.90
18047;DHT22;9148;51.454;13.862;2022-11-20T04:31:18;-5.70;99.90
18047;DHT22;9148;51.454;13.862;2022-11-20T04:33:48;-5.70;99.90
18047;DHT22;9148;51.454;13.862;2022-11-20T04:36:16;-5.70;99.90
18047;DHT22;9148;51.454;13.862;2022-11-20T04:38:43;-5.80;99.90
18047;DHT22;9148;51.454;13.862;2022-11-20T04:41:17;-5.70;99.90
18047;DHT22;9148;51.454;13.862;2022-11-20T04:43:52;-5.80;99.90
18047;DHT22;9148;51.454;13.862;2022-11-20T04:46:24;-5.80;99.90
18047;DHT22;9148;51.454;13.862;2022-11-20T04:48:50;-5.70;99.90
18047;DHT22;9148;51.454;13.862;2022-11-20T04:51:16;-5.70;99.90
18047;DHT22;9148;51.454;13.862;2022-11-20T04:53:42;-5.50;99.90
18047;DHT22;9148;51.454;13.862;2022-11-20T04:56:10;-5.60;99.90
18047;DHT22;9148;51.454;13.862;2022-11-20T04:58:37;-5.60;99.90
18047;DHT22;9148;51.454;13.862;2022-11-20T05:01:04;-5.70;99.90
18047;DHT22;9148;51.454;13.862;2022-11-20T05:03:37;-5.50;99.90
18047;DHT22;9148;51.454;13.862;2022-11-20T05:06:06;-5.60;99.90
18047;DHT22;9148;51.454;13.862;2022-11-20T05:08:32;-5.70;99.90
18047;DHT22;9148;51.454;13.862;2022-11-20T05:11:04;-5.70;99.90
18047;DHT22;9148;51.454;13.862;2022-11-20T05:13:40;-5.70;99.90
18047;DHT22;9148;51.454;13.862;2022-11-20T05:16:11;-5.70;99.90
18047;DHT22;9148;51.454;13.862;2022-11-20T05:18:38;-5.60;99.90
18047;DHT22;9148;51.454;13.862;2022-11-20T05:21:05;-5.60;99.90
18047;DHT22;9148;51.454;13.862;2022-11-20T05:23:32;-5.50;99.90
18047;DHT22;9148;51.454;13.862;2022-11-20T05:25:58;-5.50;99.90
18047;DHT22;9148;51.454;13.862;2022-11-20T05:28:25;-5.60;99.90
18047;DHT22;9148;51.454;13.862;2022-11-20T05:30:51;-6.10;99.90
18047;DHT22;9148;51.454;13.862;2022-11-20T05:33:17;-5.60;99.90
18047;DHT22;9148;51.454;13.862;2022-11-20T05:35:43;-5.00;99.90
18047;DHT22;9148;51.454;13.862;2022-11-20T05:38:09;-5.70;99.90
18047;DHT22;9148;51.454;13.862;2022-11-20T05:40:35;-5.70;99.90
18047;DHT22;9148;51.454;13.862;2022-11-20T05:43:01;-5.70;99.90
18047;DHT22;9148;51.454;13.862;2022-11-20T05:45:27;-5.70;99.90
18047;DHT22;9148;51.454;13.862;2022-11-20T05:47:53;-5.80;99.90
18047;DHT22;9148;51.454;13.862;2022-11-20T05:50:19;-5.70;99.90
18047;DHT22;9148;51.454;13.862;2022-11-20T05:52:44;-5.70;99.90
18047;DHT22;9148;51.454;13.862;2022-11-20T05:55:10;-5.00;99.90
18047;DHT22;9148;51.454;13.862;2022-11-20T05:57:36;-5.60;99.90
18047;DHT22;9148;51.454;13.862;2022-11-20T06:00:03;-5.70;99.90
18047;DHT22;9148;51.454;13.862;2022-11-20T06:02:29;-5.70;99.90
18047;DHT22;9148;51.454;13.862;2022-11-20T06:04:55;-5.10;99.90
18047;DHT22;9148;51.454;13.862;2022-11-20T06:07:20;-5.70;99.90
18047;DHT22;9148;51.454;13.862;2022-11-20T06:09:46;-5.40;99.90
18047;DHT22;9148;51.454;13.862;2022-11-20T06:12:11;-5.80;99.90
18047;DHT22;9148;51.454;13.862;2022-11-20T06:14:37;-5.60;99.90
18047;DHT22;9148;51.454;13.862;2022-11-20T06:17:03;-5.20;99.90
18047;DHT22;9148;51.454;13.862;2022-11-20T06:19:28;-5.30;99.90
18047;DHT22;9148;51.454;13.862;2022-11-20T06:21:54;-6.00;99.90
18047;DHT22;9148;51.454;13.862;2022-11-20T06:24:20;-5.90;99.90
18047;DHT22;9148;51.454;13.862;2022-11-20T06:26:45;-5.80;99.90
18047;DHT22;9148;51.454;13.862;2022-11-20T06:29:11;-5.90;99.90
18047;DHT22;9148;51.454;13.862;2022-11-20T06:31:37;-5.90;99.90
18047;DHT22;9148;51.454;13.862;2022-11-20T06:34:04;-5.90;99.90
18047;DHT22;9148;51.454;13.862;2022-11-20T06:36:31;-5.90;99.90
18047;DHT22;9148;51.454;13.862;2022-11-20T06:38:57;-5.90;99.90
18047;DHT22;9148;51.454;13.862;2022-11-20T06:41:23;-5.90;99.90
18047;DHT22;9148;51.454;13.862;2022-11-20T06:43:49;-5.90;99.90
18047;DHT22;9148;51.454;13.862;2022-11-20T06:46:16;-5.90;99.90
18047;DHT22;9148;51.454;13.862;2022-11-20T06:48:43;-5.90;99.90
18047;DHT22;9148;51.454;13.862;2022-11-20T06:51:09;-6.00;99.90
18047;DHT22;9148;51.454;13.862;2022-11-20T06:53:35;-6.10;99.90
18047;DHT22;9148;51.454;13.862;2022-11-20T06:56:02;-5.90;99.90
18047;DHT22;9148;51.454;13.862;2022-11-20T06:58:29;-5.80;99.90
18047;DHT22;9148;51.454;13.862;2022-11-20T07:01:05;-5.90;99.90
18047;DHT22;9148;51.454;13.862;2022-11-20T07:03:31;-5.80;99.90
18047;DHT22;9148;51.454;13.862;2022-11-20T07:05:58;-5.60;99.90
18047;DHT22;9148;51.454;13.862;2022-11-20T07:08:25;-5.50;99.90
18047;DHT22;9148;51.454;13.862;2022-11-20T07:10:51;-5.20;99.90
18047;DHT22;9148;51.454;13.862;2022-11-20T07:13:17;-4.90;99.90
18047;DHT22;9148;51.454;13.862;2022-11-20T07:15:43;-4.70;99.90
18047;DHT22;9148;51.454;13.862;2022-11-20T07:18:08;-4.30;99.90
18047;DHT22;9148;51.454;13.862;2022-11-20T07:20:34;-4.10;99.90
18047;DHT22;9148;51.454;13.862;2022-11-20T07:23:00;-4.00;99.90
18047;DHT22;9148;51.454;13.862;2022-11-20T07:25:27;-3.60;99.90
18047;DHT22;9148;51.454;13.862;2022-11-20T07:28:00;-3.40;99.90
18047;DHT22;9148;51.454;13.862;2022-11-20T07:30:29;-3.10;99.90
18047;DHT22;9148;51.454;13.862;2022-11-20T07:32:56;-2.90;99.90
18047;DHT22;9148;51.454;13.862;2022-11-20T07:35:23;-2.80;99.90
18047;DHT22;9148;51.454;13.862;2022-11-20T07:37:49;-2.40;99.90
18047;DHT22;9148;51.454;13.862;2022-11-20T07:40:15;-2.00;99.90
18047;DHT22;9148;51.454;13.862;2022-11-20T07:42:52;-1.90;99.90
18047;DHT22;9148;51.454;13.862;2022-11-20T07:45:20;-1.60;99.90
18047;DHT22;9148;51.454;13.862;2022-11-20T07:47:46;-1.50;99.90
18047;DHT22;9148;51.454;13.862;2022-11-20T07:50:12;-1.30;99.90
18047;DHT22;9148;51.454;13.862;2022-11-20T07:52:38;-1.10;99.90
18047;DHT22;9148;51.454;13.862;2022-11-20T07:55:04;-1.10;99.90
18047;DHT22;9148;51.454;13.862;2022-11-20T07:57:30;-1.10;99.90
18047;DHT22;9148;51.454;13.862;2022-11-20T07:59:56;-0.90;99.90
18047;DHT22;9148;51.454;13.862;2022-11-20T08:02:23;-0.70;99.90
18047;DHT22;9148;51.454;13.862;2022-11-20T08:04:48;-0.60;99.90
18047;DHT22;9148;51.454;13.862;2022-11-20T08:07:14;-0.50;99.90
18047;DHT22;9148;51.454;13.862;2022-11-20T08:09:40;-0.40;99.90
18047;DHT22;9148;51.454;13.862;2022-11-20T08:12:05;-0.20;99.90
18047;DHT22;9148;51.454;13.862;2022-11-20T08:14:50;-0.10;99.90
18047;DHT22;9148;51.454;13.862;2022-11-20T08:17:15;0.10;99.90
18047;DHT22;9148;51.454;13.862;2022-11-20T08:19:41;0.30;99.90
18047;DHT22;9148;51.454;13.862;2022-11-20T08:22:07;0.30;99.90
18047;DHT22;9148;51.454;13.862;2022-11-20T08:24:32;0.60;99.90
18047;DHT22;9148;51.454;13.862;2022-11-20T08:26:58;1.90;99.90
18047;DHT22;9148;51.454;13.862;2022-11-20T08:29:26;1.00;99.90
18047;DHT22;9148;51.454;13.862;2022-11-20T08:31:51;1.40;99.90
18047;DHT22;9148;51.454;13.862;2022-11-20T08:34:17;1.70;99.90
18047;DHT22;9148;51.454;13.862;2022-11-20T08:36:43;2.00;99.90
18047;DHT22;9148;51.454;13.862;2022-11-20T08:39:11;2.00;99.90
18047;DHT22;9148;51.454;13.862;2022-11-20T08:41:37;2.50;99.90
18047;DHT22;9148;51.454;13.862;2022-11-20T08:44:04;2.30;99.90
18047;DHT22;9148;51.454;13.862;2022-11-20T08:46:34;2.30;99.90
18047;DHT22;9148;51.454;13.862;2022-11-20T08:49:01;2.30;99.90
18047;DHT22;9148;51.454;13.862;2022-11-20T08:51:27;2.30;99.90
18047;DHT22;9148;51.454;13.862;2022-11-20T08:53:53;2.40;99.90
18047;DHT22;9148;51.454;13.862;2022-11-20T08:56:18;2.70;99.90
18047;DHT22;9148;51.454;13.862;2022-11-20T08:58:44;3.00;99.90
18047;DHT22;9148;51.454;13.862;2022-11-20T09:01:10;3.20;99.90
18047;DHT22;9148;51.454;13.862;2022-11-20T09:03:36;3.30;99.90
18047;DHT22;9148;51.454;13.862;2022-11-20T09:06:06;3.40;99.90
18047;DHT22;9148;51.454;13.862;2022-11-20T09:08:33;3.70;99.90
18047;DHT22;9148;51.454;13.862;2022-11-20T09:10:59;3.80;99.90
18047;DHT22;9148;51.454;13.862;2022-11-20T09:13:26;3.90;99.90
18047;DHT22;9148;51.454;13.862;2022-11-20T09:16:07;4.20;99.90
18047;DHT22;9148;51.454;13.862;2022-11-20T09:18:34;4.50;99.90
18047;DHT22;9148;51.454;13.862;2022-11-20T09:21:06;5.10;99.90
18047;DHT22;9148;51.454;13.862;2022-11-20T09:23:35;4.90;99.70
18047;DHT22;9148;51.454;13.862;2022-11-20T09:26:03;5.00;98.10
18047;DHT22;9148;51.454;13.862;2022-11-20T09:28:33;5.00;96.50
18047;DHT22;9148;51.454;13.862;2022-11-20T09:30:59;5.00;94.50
18047;DHT22;9148;51.454;13.862;2022-11-20T09:33:25;4.80;90.70
18047;DHT22;9148;51.454;13.862;2022-11-20T09:35:51;4.50;91.70
18047;DHT22;9148;51.454;13.862;2022-11-20T09:38:17;4.50;92.40
18047;DHT22;9148;51.454;13.862;2022-11-20T09:41:01;4.50;92.90
18047;DHT22;9148;51.454;13.862;2022-11-20T09:46:29;5.00;90.20
18047;DHT22;9148;51.454;13.862;2022-11-20T09:49:14;4.50;87.20
18047;DHT22;9148;51.454;13.862;2022-11-20T09:52:01;4.40;87.00
18047;DHT22;9148;51.454;13.862;2022-11-20T09:54:50;4.40;87.60
18047;DHT22;9148;51.454;13.862;2022-11-20T09:57:23;4.40;87.40
18047;DHT22;9148;51.454;13.862;2022-11-20T09:59:56;4.50;86.70
18047;DHT22;9148;51.454;13.862;2022-11-20T10:02:34;4.50;87.40
18047;DHT22;9148;51.454;13.862;2022-11-20T10:10:16;4.90;84.70
18047;DHT22;9148;51.454;13.862;2022-11-20T10:19:45;5.00;80.90
18047;DHT22;9148;51.454;13.862;2022-11-20T10:22:46;4.90;82.20
18047;DHT22;9148;51.454;13.862;2022-11-20T10:25:24;5.00;80.40
18047;DHT22;9148;51.454;13.862;2022-11-20T10:28:10;5.60;79.90
18047;DHT22;9148;51.454;13.862;2022-11-20T10:31:06;4.80;79.80
18047;DHT22;9148;51.454;13.862;2022-11-20T10:33:40;4.80;80.30
18047;DHT22;9148;51.454;13.862;2022-11-20T10:38:54;5.00;79.80
18047;DHT22;9148;51.454;13.862;2022-11-20T10:41:27;5.00;79.60
18047;DHT22;9148;51.454;13.862;2022-11-20T10:44:05;5.40;81.20
18047;DHT22;9148;51.454;13.862;2022-11-20T10:46:53;5.00;80.30
18047;DHT22;9148;51.454;13.862;2022-11-20T10:49:20;5.10;79.90
18047;DHT22;9148;51.454;13.862;2022-11-20T10:57:54;5.50;80.50
18047;DHT22;9148;51.454;13.862;2022-11-20T11:00:22;5.60;79.50
18047;DHT22;9148;51.454;13.862;2022-11-20T11:02:53;6.50;78.50
18047;DHT22;9148;51.454;13.862;2022-11-20T11:07:47;4.70;77.90
18047;DHT22;9148;51.454;13.862;2022-11-20T11:10:16;5.50;78.20
18047;DHT22;9148;51.454;13.862;2022-11-20T11:12:46;6.40;78.40
18047;DHT22;9148;51.454;13.862;2022-11-20T11:15:26;5.50;78.20
18047;DHT22;9148;51.454;13.862;2022-11-20T11:17:54;5.40;78.30
18047;DHT22;9148;51.454;13.862;2022-11-20T11:20:22;5.80;79.50
18047;DHT22;9148;51.454;13.862;2022-11-20T11:22:54;5.50;79.10
18047;DHT22;9148;51.454;13.862;2022-11-20T11:25:30;5.40;80.40
18047;DHT22;9148;51.454;13.862;2022-11-20T11:28:04;5.20;81.30
18047;DHT22;9148;51.454;13.862;2022-11-20T11:30:45;6.00;81.20
18047;DHT22;9148;51.454;13.862;2022-11-20T11:33:19;6.00;80.20
18047;DHT22;9148;51.454;13.862;2022-11-20T11:36:14;6.50;78.60
18047;DHT22;9148;51.454;13.862;2022-11-20T11:38:43;6.00;78.60
18047;DHT22;9148;51.454;13.862;2022-11-20T11:41:15;5.80;78.80
18047;DHT22;9148;51.454;13.862;2022-11-20T11:43:54;6.70;78.60
18047;DHT22;9148;51.454;13.862;2022-11-20T11:46:49;5.50;77.30
18047;DHT22;9148;51.454;13.862;2022-11-20T11:49:18;5.50;78.50
18047;DHT22;9148;51.454;13.862;2022-11-20T11:51:58;5.50;79.20
18047;DHT22;9148;51.454;13.862;2022-11-20T11:54:54;5.80;79.40
18047;DHT22;9148;51.454;13.862;2022-11-20T11:57:29;5.70;77.80
18047;DHT22;9148;51.454;13.862;2022-11-20T12:00:12;5.60;78.00
18047;DHT22;9148;51.454;13.862;2022-11-20T12:02:58;5.60;78.80
18047;DHT22;9148;51.454;13.862;2022-11-20T12:05:46;5.70;78.20
18047;DHT22;9148;51.454;13.862;2022-11-20T12:09:09;5.70;78.00
18047;DHT22;9148;51.454;13.862;2022-11-20T12:11:56;5.80;78.00
18047;DHT22;9148;51.454;13.862;2022-11-20T12:14:40;5.80;76.30
18047;DHT22;9148;51.454;13.862;2022-11-20T12:17:13;5.80;75.80
18047;DHT22;9148;51.454;13.862;2022-11-20T12:19:39;6.50;75.60
18047;DHT22;9148;51.454;13.862;2022-11-20T12:22:24;5.50;75.40
18047;DHT22;9148;51.454;13.862;2022-11-20T12:25:07;5.40;75.90
18047;DHT22;9148;51.454;13.862;2022-11-20T12:30:54;5.40;78.40
18047;DHT22;9148;51.454;13.862;2022-11-20T12:33:48;5.50;77.50
18047;DHT22;9148;51.454;13.862;2022-11-20T12:36:27;5.40;77.70
18047;DHT22;9148;51.454;13.862;2022-11-20T12:39:35;6.00;77.70
18047;DHT22;9148;51.454;13.862;2022-11-20T12:42:24;5.40;77.80
18047;DHT22;9148;51.454;13.862;2022-11-20T12:54:25;5.40;79.00
18047;DHT22;9148;51.454;13.862;2022-11-20T13:00:19;5.30;79.90
18047;DHT22;9148;51.454;13.862;2022-11-20T13:08:24;5.10;79.10
18047;DHT22;9148;51.454;13.862;2022-11-20T13:13:29;4.90;79.50
18047;DHT22;9148;51.454;13.862;2022-11-20T13:16:08;4.80;80.10
18047;DHT22;9148;51.454;13.862;2022-11-20T13:18:41;4.70;80.30
18047;DHT22;9148;51.454;13.862;2022-11-20T13:21:15;4.70;81.00
18047;DHT22;9148;51.454;13.862;2022-11-20T13:23:48;4.70;81.40
18047;DHT22;9148;51.454;13.862;2022-11-20T13:26:20;5.20;81.90
18047;DHT22;9148;51.454;13.862;2022-11-20T13:28:59;5.30;81.50
18047;DHT22;9148;51.454;13.862;2022-11-20T13:31:35;4.30;81.20
18047;DHT22;9148;51.454;13.862;2022-11-20T13:34:06;4.20;82.10
18047;DHT22;9148;51.454;13.862;2022-11-20T13:36:32;4.00;82.90
18047;DHT22;9148;51.454;13.862;2022-11-20T13:39:00;4.50;83.60
18047;DHT22;9148;51.454;13.862;2022-11-20T13:41:36;3.70;84.20
18047;DHT22;9148;51.454;13.862;2022-11-20T13:44:26;4.00;85.90
18047;DHT22;9148;51.454;13.862;2022-11-20T13:46:54;3.60;86.10
18047;DHT22;9148;51.454;13.862;2022-11-20T13:49:38;4.30;86.60
18047;DHT22;9148;51.454;13.862;2022-11-20T13:56:05;3.50;85.90
18047;DHT22;9148;51.454;13.862;2022-11-20T13:58:50;3.40;86.50
18047;DHT22;9148;51.454;13.862;2022-11-20T14:01:23;3.50;86.50
18047;DHT22;9148;51.454;13.862;2022-11-20T14:03:51;3.50;87.00
18047;DHT22;9148;51.454;13.862;2022-11-20T14:06:32;3.40;87.60
18047;DHT22;9148;51.454;13.862;2022-11-20T14:09:00;3.30;87.40
18047;DHT22;9148;51.454;13.862;2022-11-20T14:11:28;3.10;87.20
18047;DHT22;9148;51.454;13.862;2022-11-20T14:13:55;2.90;87.40
18047;DHT22;9148;51.454;13.862;2022-11-20T14:16:24;2.70;88.10
18047;DHT22;9148;51.454;13.862;2022-11-20T14:18:50;1.90;88.80
18047;DHT22;9148;51.454;13.862;2022-11-20T14:21:42;2.10;90.00
18047;DHT22;9148;51.454;13.862;2022-11-20T14:24:12;1.90;90.40
18047;DHT22;9148;51.454;13.862;2022-11-20T14:26:44;1.70;90.90
18047;DHT22;9148;51.454;13.862;2022-11-20T14:29:29;1.60;91.40
18047;DHT22;9148;51.454;13.862;2022-11-20T14:32:01;1.30;91.90
18047;DHT22;9148;51.454;13.862;2022-11-20T14:34:30;2.10;93.00
18047;DHT22;9148;51.454;13.862;2022-11-20T14:37:02;1.10;93.40
18047;DHT22;9148;51.454;13.862;2022-11-20T14:39:34;0.90;93.90
18047;DHT22;9148;51.454;13.862;2022-11-20T14:42:01;0.80;94.60
18047;DHT22;9148;51.454;13.862;2022-11-20T14:44:33;0.70;95.10
18047;DHT22;9148;51.454;13.862;2022-11-20T14:47:02;0.60;95.80
18047;DHT22;9148;51.454;13.862;2022-11-20T14:49:30;0.50;96.70
18047;DHT22;9148;51.454;13.862;2022-11-20T14:52:02;0.40;97.00
18047;DHT22;9148;51.454;13.862;2022-11-20T14:54:44;0.30;97.30
18047;DHT22;9148;51.454;13.862;2022-11-20T14:59:51;0.10;98.10
18047;DHT22;9148;51.454;13.862;2022-11-20T15:02:17;0.00;98.90
18047;DHT22;9148;51.454;13.862;2022-11-20T15:05:00;-0.10;99.60
18047;DHT22;9148;51.454;13.862;2022-11-20T15:07:37;-0.10;99.90
18047;DHT22;9148;51.454;13.862;2022-11-20T15:10:10;-0.20;99.90
18047;DHT22;9148;51.454;13.862;2022-11-20T15:12:45;-0.30;99.90
18047;DHT22;9148;51.454;13.862;2022-11-20T15:15:16;-0.40;99.90
18047;DHT22;9148;51.454;13.862;2022-11-20T15:17:46;-0.50;99.90
18047;DHT22;9148;51.454;13.862;2022-11-20T15:20:14;-0.50;99.90
18047;DHT22;9148;51.454;13.862;2022-11-20T15:22:41;-0.50;99.90
18047;DHT22;9148;51.454;13.862;2022-11-20T15:25:17;-0.80;99.90
18047;DHT22;9148;51.454;13.862;2022-11-20T15:27:44;-0.70;99.90
18047;DHT22;9148;51.454;13.862;2022-11-20T15:30:17;-0.90;99.90
18047;DHT22;9148;51.454;13.862;2022-11-20T15:32:45;-0.50;99.90
18047;DHT22;9148;51.454;13.862;2022-11-20T15:35:12;-0.90;99.90
18047;DHT22;9148;51.454;13.862;2022-11-20T15:37:39;-0.90;99.90
18047;DHT22;9148;51.454;13.862;2022-11-20T15:40:06;-0.90;99.90
18047;DHT22;9148;51.454;13.862;2022-11-20T15:42:33;-1.00;99.90
18047;DHT22;9148;51.454;13.862;2022-11-20T15:44:59;-0.90;99.90
18047;DHT22;9148;51.454;13.862;2022-11-20T15:47:28;-0.90;99.90
18047;DHT22;9148;51.454;13.862;2022-11-20T15:49:55;-0.90;99.90
18047;DHT22;9148;51.454;13.862;2022-11-20T15:52:21;-0.90;99.90
18047;DHT22;9148;51.454;13.862;2022-11-20T15:54:47;-0.80;99.90
18047;DHT22;9148;51.454;13.862;2022-11-20T15:57:13;-0.90;99.90
18047;DHT22;9148;51.454;13.862;2022-11-20T15:59:39;-0.60;99.90
18047;DHT22;9148;51.454;13.862;2022-11-20T16:02:13;-0.60;99.90
18047;DHT22;9148;51.454;13.862;2022-11-20T16:04:39;-0.60;99.90
18047;DHT22;9148;51.454;13.862;2022-11-20T16:07:06;-0.50;99.90
18047;DHT22;9148;51.454;13.862;2022-11-20T16:09:31;-0.50;99.90
18047;DHT22;9148;51.454;13.862;2022-11-20T16:11:58;-0.50;99.90
18047;DHT22;9148;51.454;13.862;2022-11-20T16:14:25;-0.50;99.90
18047;DHT22;9148;51.454;13.862;2022-11-20T16:17:10;-0.40;99.90
18047;DHT22;9148;51.454;13.862;2022-11-20T16:19:36;-0.50;99.90
18047;DHT22;9148;51.454;13.862;2022-11-20T16:22:02;-0.50;99.90
18047;DHT22;9148;51.454;13.862;2022-11-20T16:24:28;-0.50;99.90
18047;DHT22;9148;51.454;13.862;2022-11-20T16:26:54;-0.50;99.90
18047;DHT22;9148;51.454;13.862;2022-11-20T16:29:20;-1.10;99.90
18047;DHT22;9148;51.454;13.862;2022-11-20T16:31:46;-0.60;99.90
18047;DHT22;9148;51.454;13.862;2022-11-20T16:34:11;-0.70;99.90
18047;DHT22;9148;51.454;13.862;2022-11-20T16:36:39;-0.70;99.90
18047;DHT22;9148;51.454;13.862;2022-11-20T16:39:06;-0.90;99.90
18047;DHT22;9148;51.454;13.862;2022-11-20T16:41:33;-0.90;99.90
18047;DHT22;9148;51.454;13.862;2022-11-20T16:44:01;-1.00;99.90
18047;DHT22;9148;51.454;13.862;2022-11-20T16:46:32;-1.00;99.90
18047;DHT22;9148;51.454;13.862;2022-11-20T16:48:59;-1.20;99.90
18047;DHT22;9148;51.454;13.862;2022-11-20T16:51:30;-0.60;99.90
18047;DHT22;9148;51.454;13.862;2022-11-20T16:53:56;-1.30;99.90
18047;DHT22;9148;51.454;13.862;2022-11-20T16:56:25;-1.40;99.90
18047;DHT22;9148;51.454;13.862;2022-11-20T16:58:53;-1.50;99.90